Time;durP1;ratioP1;P1;durP2;ratioP2;P2;SDS_P1;SDS_P2;PMS_P1;PMS_P2;Temp;Humidity;BMP_temperature;BMP_pressure;BME280_temperature;BME280_humidity;BME280_pressure;Samples;Min_cycle;Max_cycle;Signal;HPM_P1;HPM_P2
2022/06/05 00:00:30;;;;;;;5.80;5.27;;;;;;;;;;5071421;28;20446;-71
2022/06/05 00:03:03;;;;;;;5.90;5.13;;;;;;;;;;5070538;28;20569;-71
2022/06/05 00:05:33;;;;;;;6.63;5.03;;;;;;;;;;5071249;28;20537;-71
2022/06/05 00:08:06;;;;;;;5.80;4.77;;;;;;;;;;5070313;28;20460;-71
2022/06/05 00:10:36;;;;;;;4.43;4.03;;;;;;;;;;5070714;28;20922;-73
2022/06/05 00:13:09;;;;;;;4.40;4.03;;;;;;;;;;5070341;28;20462;-70
2022/06/05 00:15:36;;;;;;;5.73;5.00;;;;;;;;;;5069255;28;20507;-71
2022/06/05 00:18:04;;;;;;;4.90;4.37;;;;;;;;;;5070500;28;20544;-71
2022/06/05 00:20:31;;;;;;;4.70;4.20;;;;;;;;;;5071291;28;20450;-71
2022/06/05 00:22:58;;;;;;;4.50;3.93;;;;;;;;;;5070048;28;20488;-72
2022/06/05 00:25:26;;;;;;;5.87;5.27;;;;;;;;;;5070963;28;20520;-73
2022/06/05 00:27:58;;;;;;;5.30;4.80;;;;;;;;;;5070572;28;20446;-73
2022/06/05 00:30:35;;;;;;;5.10;4.60;;;;;;;;;;5070845;28;20503;-73
2022/06/05 00:33:04;;;;;;;5.63;4.60;;;;;;;;;;5069687;28;20453;-71
2022/06/05 00:35:33;;;;;;;4.90;4.40;;;;;;;;;;5070840;28;20800;-72
2022/06/05 00:38:02;;;;;;;6.67;5.60;;;;;;;;;;5070064;28;20460;-73
2022/06/05 00:40:31;;;;;;;4.53;4.07;;;;;;;;;;5070525;28;20863;-72
2022/06/05 00:42:59;;;;;;;4.30;3.90;;;;;;;;;;5069486;28;20560;-71
2022/06/05 00:45:29;;;;;;;4.93;4.30;;;;;;;;;;5070522;28;20963;-72
2022/06/05 00:47:56;;;;;;;6.90;5.67;;;;;;;;;;5069609;28;20445;-72
2022/06/05 00:50:24;;;;;;;5.60;4.27;;;;;;;;;;5070933;28;20878;-72
2022/06/05 00:52:55;;;;;;;5.43;4.00;;;;;;;;;;5069494;28;20461;-72
2022/06/05 00:55:23;;;;;;;5.27;4.83;;;;;;;;;;5070730;28;20471;-72
2022/06/05 00:57:50;;;;;;;5.23;4.73;;;;;;;;;;5070002;28;20468;-72
2022/06/05 01:00:18;;;;;;;5.43;4.93;;;;;;;;;;5070552;28;20450;-72
2022/06/05 01:02:49;;;;;;;5.60;4.97;;;;;;;;;;5069898;28;20478;-72
2022/06/05 01:05:17;;;;;;;5.10;4.27;;;;;;;;;;5070165;28;20445;-72
2022/06/05 01:07:44;;;;;;;6.13;4.67;;;;;;;;;;5070003;28;20528;-73
2022/06/05 01:10:12;;;;;;;10.70;4.50;;;;;;;;;;5070325;28;20505;-72
2022/06/05 01:12:42;;;;;;;5.43;4.17;;;;;;;;;;5066262;28;20496;-72
2022/06/05 01:15:16;;;;;;;6.07;3.90;;;;;;;;;;5069358;28;20523;-72
2022/06/05 01:17:49;;;;;;;4.77;4.27;;;;;;;;;;5070287;28;20468;-74
2022/06/05 01:20:25;;;;;;;5.23;4.63;;;;;;;;;;5070759;28;20445;-72
2022/06/05 01:23:08;;;;;;;5.57;4.97;;;;;;;;;;5069355;28;20476;-72
2022/06/05 01:25:44;;;;;;;4.37;3.90;;;;;;;;;;5068974;28;20456;-71
2022/06/05 01:28:12;;;;;;;3.50;3.17;;;;;;;;;;5070656;28;20507;-71
2022/06/05 01:30:43;;;;;;;5.57;4.70;;;;;;;;;;5070223;28;20640;-73
2022/06/05 01:33:15;;;;;;;6.53;4.77;;;;;;;;;;5068521;28;20450;-70
2022/06/05 01:35:44;;;;;;;4.43;4.03;;;;;;;;;;5070342;28;20446;-71
2022/06/05 01:38:15;;;;;;;4.53;4.10;;;;;;;;;;5069803;28;20948;-71
2022/06/05 01:40:46;;;;;;;6.27;4.20;;;;;;;;;;5069697;28;20481;-70
2022/06/05 01:43:15;;;;;;;6.37;4.37;;;;;;;;;;5069505;28;20567;-71
2022/06/05 01:45:45;;;;;;;5.00;4.50;;;;;;;;;;5069864;28;20542;-71
2022/06/05 01:48:15;;;;;;;5.30;4.30;;;;;;;;;;5070726;28;20482;-71
2022/06/05 01:50:44;;;;;;;5.40;4.77;;;;;;;;;;5070046;28;20952;-72
2022/06/05 01:53:14;;;;;;;3.97;3.67;;;;;;;;;;5061168;28;20453;-71
2022/06/05 01:55:45;;;;;;;4.90;4.50;;;;;;;;;;5069955;28;20862;-71
2022/06/05 01:58:14;;;;;;;4.83;4.20;;;;;;;;;;5070443;28;20446;-70
2022/06/05 02:00:42;;;;;;;5.97;5.00;;;;;;;;;;5071597;28;20445;-71
2022/06/05 02:03:10;;;;;;;6.93;5.00;;;;;;;;;;5072899;28;20484;-71
2022/06/05 02:05:42;;;;;;;5.17;4.67;;;;;;;;;;5073114;28;20964;-71
2022/06/05 02:08:12;;;;;;;7.00;5.17;;;;;;;;;;5073597;28;20449;-71
2022/06/05 02:10:43;;;;;;;5.43;4.87;;;;;;;;;;5073675;28;20460;-71
2022/06/05 02:13:12;;;;;;;5.50;5.00;;;;;;;;;;5073101;28;20441;-71
2022/06/05 02:15:39;;;;;;;6.03;5.03;;;;;;;;;;5077629;28;20445;-71
2022/06/05 02:18:07;;;;;;;6.00;4.50;;;;;;;;;;5072953;28;20450;-71
2022/06/05 02:20:34;;;;;;;4.63;4.20;;;;;;;;;;5073564;28;20838;-71
2022/06/05 02:23:01;;;;;;;5.20;4.70;;;;;;;;;;5071896;28;20475;-70
2022/06/05 02:25:28;;;;;;;4.20;3.80;;;;;;;;;;5073209;28;20456;-71
2022/06/05 02:27:58;;;;;;;4.97;4.47;;;;;;;;;;5072504;28;20449;-70
2022/06/05 02:30:29;;;;;;;5.10;4.60;;;;;;;;;;5072832;28;20446;-71
2022/06/05 02:33:02;;;;;;;5.07;4.57;;;;;;;;;;5071999;28;20556;-71
2022/06/05 02:35:34;;;;;;;5.57;5.07;;;;;;;;;;5070873;28;20955;-71
2022/06/05 02:38:22;;;;;;;5.23;4.73;;;;;;;;;;5066880;28;20476;-72
2022/06/05 02:40:54;;;;;;;5.50;4.23;;;;;;;;;;5063165;28;20485;-71
2022/06/05 02:43:26;;;;;;;7.83;5.90;;;;;;;;;;5072081;28;20465;-71
2022/06/05 02:45:58;;;;;;;4.97;4.57;;;;;;;;;;5070088;28;20452;-71
2022/06/05 02:48:27;;;;;;;7.27;5.40;;;;;;;;;;5061930;28;20476;-71
2022/06/05 02:50:56;;;;;;;5.63;4.53;;;;;;;;;;5072231;28;20450;-71
2022/06/05 02:53:23;;;;;;;5.10;4.47;;;;;;;;;;5072620;28;20518;-71
2022/06/05 02:55:50;;;;;;;7.57;5.43;;;;;;;;;;5072132;28;20861;-71
2022/06/05 02:58:17;;;;;;;5.80;5.20;;;;;;;;;;5072648;28;20529;-72
2022/06/05 03:03:27;;;;;;;5.30;4.80;;;;;;;;;;5072330;28;20812;-72
2022/06/05 03:03:33;;;;;;;5.90;5.27;;;;;;;;;;5071533;28;20473;-70
2022/06/05 03:06:03;;;;;;;5.50;5.00;;;;;;;;;;5072042;28;20544;-71
2022/06/05 03:08:30;;;;;;;5.50;4.90;;;;;;;;;;5071794;28;20450;-71
2022/06/05 03:10:57;;;;;;;4.47;3.70;;;;;;;;;;5070484;28;20795;-71
2022/06/05 03:13:24;;;;;;;5.47;4.40;;;;;;;;;;5071776;28;20454;-71
2022/06/05 03:15:51;;;;;;;4.70;4.03;;;;;;;;;;5068799;28;20937;-71
2022/06/05 03:18:19;;;;;;;5.80;5.20;;;;;;;;;;5072362;28;20456;-71
2022/06/05 03:20:47;;;;;;;5.80;5.30;;;;;;;;;;5071789;28;20446;-71
2022/06/05 03:23:14;;;;;;;4.87;4.30;;;;;;;;;;5071685;28;20486;-72
2022/06/05 03:25:43;;;;;;;5.13;4.53;;;;;;;;;;5072125;28;20538;-71
2022/06/05 03:28:10;;;;;;;5.23;4.77;;;;;;;;;;5071196;28;20450;-71
2022/06/05 03:30:39;;;;;;;5.80;5.20;;;;;;;;;;5070899;28;20452;-71
2022/06/05 03:33:06;;;;;;;6.00;5.37;;;;;;;;;;5070591;28;20953;-71
2022/06/05 03:35:36;;;;;;;4.57;4.17;;;;;;;;;;5071931;28;20450;-72
2022/06/05 03:38:05;;;;;;;4.90;4.40;;;;;;;;;;5067369;28;20476;-71
2022/06/05 03:40:32;;;;;;;5.37;4.87;;;;;;;;;;5071535;28;20484;-71
2022/06/05 03:42:59;;;;;;;5.67;4.07;;;;;;;;;;5070319;28;20449;-72
2022/06/05 03:45:26;;;;;;;6.17;4.83;;;;;;;;;;5071427;28;20460;-71
2022/06/05 03:47:53;;;;;;;6.70;5.10;;;;;;;;;;5071016;28;20449;-71
2022/06/05 03:50:21;;;;;;;5.07;4.37;;;;;;;;;;5070967;28;20481;-71
2022/06/05 03:52:48;;;;;;;4.93;4.30;;;;;;;;;;5070353;28;20457;-71
2022/06/05 03:55:17;;;;;;;4.33;3.93;;;;;;;;;;5071341;28;20458;-72
2022/06/05 03:57:45;;;;;;;5.40;4.90;;;;;;;;;;5070796;28;20455;-71
2022/06/05 04:00:13;;;;;;;6.10;4.87;;;;;;;;;;5071622;28;20469;-70
2022/06/05 04:02:40;;;;;;;4.43;4.03;;;;;;;;;;5070819;28;20446;-71
2022/06/05 04:05:09;;;;;;;5.00;4.50;;;;;;;;;;5071416;28;20477;-71
2022/06/05 04:07:36;;;;;;;6.20;5.00;;;;;;;;;;5071241;28;20553;-71
2022/06/05 04:10:03;;;;;;;5.23;4.73;;;;;;;;;;5070698;28;20468;-70
2022/06/05 04:12:32;;;;;;;4.97;4.47;;;;;;;;;;5069770;28;20468;-71
2022/06/05 04:15:00;;;;;;;4.93;4.43;;;;;;;;;;5070515;28;20453;-71
2022/06/05 04:17:27;;;;;;;5.03;4.50;;;;;;;;;;5070906;28;20457;-71
2022/06/05 04:19:54;;;;;;;6.53;5.23;;;;;;;;;;5070649;28;20460;-71
2022/06/05 04:22:21;;;;;;;5.30;4.80;;;;;;;;;;5070470;28;20445;-71
2022/06/05 04:24:49;;;;;;;5.70;5.03;;;;;;;;;;5069435;28;20473;-71
2022/06/05 04:27:16;;;;;;;5.70;4.30;;;;;;;;;;5070417;28;20945;-71
2022/06/05 04:29:44;;;;;;;6.40;5.80;;;;;;;;;;5070613;28;20449;-74
2022/06/05 04:32:11;;;;;;;6.73;5.60;;;;;;;;;;5070889;28;20482;-71
2022/06/05 04:34:39;;;;;;;5.73;4.60;;;;;;;;;;5070489;28;20460;-72
2022/06/05 04:37:07;;;;;;;5.10;4.70;;;;;;;;;;5059306;28;20445;-71
2022/06/05 04:39:35;;;;;;;7.00;5.97;;;;;;;;;;5070887;28;20469;-71
2022/06/05 04:42:02;;;;;;;5.00;4.47;;;;;;;;;;5070089;28;20461;-71
2022/06/05 04:44:30;;;;;;;5.83;4.70;;;;;;;;;;5070267;28;20771;-71
2022/06/05 04:46:59;;;;;;;5.10;4.60;;;;;;;;;;5070437;28;20453;-71
2022/06/05 04:49:26;;;;;;;5.13;4.73;;;;;;;;;;5070785;28;20466;-70
2022/06/05 04:51:53;;;;;;;5.37;4.80;;;;;;;;;;5069860;28;20450;-70
2022/06/05 04:54:20;;;;;;;5.60;4.83;;;;;;;;;;5070301;28;20472;-71
2022/06/05 04:56:47;;;;;;;6.80;6.10;;;;;;;;;;5070013;28;20794;-71
2022/06/05 04:59:15;;;;;;;5.43;4.93;;;;;;;;;;5069839;28;20464;-71
2022/06/05 05:01:42;;;;;;;6.53;5.77;;;;;;;;;;5070450;28;20549;-78
2022/06/05 05:04:12;;;;;;;5.80;5.20;;;;;;;;;;5069588;28;20484;-76
2022/06/05 05:06:40;;;;;;;6.23;5.63;;;;;;;;;;5071242;28;20806;-76
2022/06/05 05:09:07;;;;;;;6.90;5.93;;;;;;;;;;5069835;28;20544;-75
2022/06/05 05:11:35;;;;;;;8.67;6.40;;;;;;;;;;5070803;28;20471;-75
2022/06/05 05:14:02;;;;;;;5.80;5.13;;;;;;;;;;5068788;28;20445;-75
2022/06/05 05:16:30;;;;;;;6.77;5.90;;;;;;;;;;5070912;28;20449;-75
2022/06/05 05:18:57;;;;;;;6.93;5.73;;;;;;;;;;5069283;28;20961;-74
2022/06/05 05:21:27;;;;;;;6.07;5.43;;;;;;;;;;5070746;28;20460;-75
2022/06/05 05:23:55;;;;;;;7.37;6.27;;;;;;;;;;5069481;28;20481;-73
2022/06/05 05:26:24;;;;;;;8.80;6.50;;;;;;;;;;5069895;28;20449;-73
2022/06/05 05:28:51;;;;;;;6.67;5.97;;;;;;;;;;5069990;28;20448;-74
2022/06/05 05:31:20;;;;;;;8.20;6.63;;;;;;;;;;5070691;28;20464;-75
2022/06/05 05:33:49;;;;;;;6.77;5.50;;;;;;;;;;5069214;28;20452;-74
2022/06/05 05:36:17;;;;;;;8.40;6.60;;;;;;;;;;5074526;28;20528;-74
2022/06/05 05:44:13;;;;;;;12.33;7.97;;;;;;;;;;5073352;28;20945;-75
2022/06/05 05:46:40;;;;;;;7.70;6.87;;;;;;;;;;5074337;28;20524;-75
2022/06/05 05:49:07;;;;;;;9.57;7.63;;;;;;;;;;5073586;28;20460;-75
2022/06/05 05:51:34;;;;;;;8.97;7.00;;;;;;;;;;5073744;28;20453;-74
2022/06/05 05:54:03;;;;;;;7.63;6.60;;;;;;;;;;5072645;28;20453;-73
2022/06/05 05:56:30;;;;;;;8.20;6.70;;;;;;;;;;5060510;28;20456;-73
2022/06/05 05:58:57;;;;;;;7.43;6.20;;;;;;;;;;5073031;28;20446;-72
2022/06/05 06:01:25;;;;;;;9.50;8.10;;;;;;;;;;5073555;28;20453;-73
2022/06/05 06:03:52;;;;;;;9.90;8.00;;;;;;;;;;5072317;28;20446;-73
2022/06/05 06:06:20;;;;;;;9.97;7.30;;;;;;;;;;5074056;28;20482;-74
2022/06/05 06:08:47;;;;;;;9.07;7.30;;;;;;;;;;5072844;28;20446;-74
2022/06/05 06:11:16;;;;;;;10.10;8.40;;;;;;;;;;5073636;28;20475;-74
2022/06/05 06:13:43;;;;;;;6.60;5.87;;;;;;;;;;5072287;28;20456;-73
2022/06/05 06:16:10;;;;;;;6.40;5.03;;;;;;;;;;5073134;28;20442;-74
2022/06/05 06:18:37;;;;;;;9.60;5.30;;;;;;;;;;5073786;28;20469;-74
2022/06/05 06:21:04;;;;;;;6.20;5.47;;;;;;;;;;5073822;28;20449;-74
2022/06/05 06:23:32;;;;;;;6.70;6.00;;;;;;;;;;5073642;28;20449;-74
2022/06/05 06:25:59;;;;;;;6.40;5.60;;;;;;;;;;5073111;28;20844;-74
2022/06/05 06:28:27;;;;;;;7.10;5.87;;;;;;;;;;5073383;28;20450;-74
2022/06/05 06:30:54;;;;;;;6.10;4.50;;;;;;;;;;5074964;28;20456;-75
2022/06/05 06:33:22;;;;;;;6.37;4.70;;;;;;;;;;5074074;28;20461;-75
2022/06/05 06:35:49;;;;;;;7.80;4.00;;;;;;;;;;5074508;28;20462;-74
2022/06/05 06:38:17;;;;;;;6.97;4.73;;;;;;;;;;5073813;28;20453;-74
2022/06/05 06:40:44;;;;;;;5.60;3.60;;;;;;;;;;5071245;28;20473;-74
2022/06/05 06:43:11;;;;;;;7.10;3.80;;;;;;;;;;5072843;28;20450;-73
2022/06/05 06:45:40;;;;;;;6.00;4.57;;;;;;;;;;5072188;28;20478;-72
2022/06/05 06:48:07;;;;;;;4.57;3.70;;;;;;;;;;5072032;28;20450;-74
2022/06/05 06:50:34;;;;;;;4.03;3.60;;;;;;;;;;5072617;28;20450;-72
2022/06/05 06:53:01;;;;;;;4.00;3.53;;;;;;;;;;5071772;28;20438;-73
2022/06/05 06:55:30;;;;;;;6.20;3.53;;;;;;;;;;5072779;28;20449;-73
2022/06/05 06:57:57;;;;;;;3.37;3.07;;;28.70;6.00;;;;;;5072204;28;20449;-74
2022/06/05 07:00:24;;;;;;;3.63;3.33;;;18.40;99.90;;;;;;5074038;28;20956;-73
2022/06/05 07:02:52;;;;;;;3.73;3.37;;;18.20;99.90;;;;;;5073535;28;20455;-74
2022/06/05 07:05:19;;;;;;;5.10;4.47;;;18.20;99.90;;;;;;5072670;28;20941;-74
2022/06/05 07:07:46;;;;;;;5.53;4.20;;;18.00;99.90;;;;;;5059067;28;20450;-73
2022/06/05 07:10:13;;;;;;;5.10;3.57;;;18.10;99.90;;;;;;5072497;28;20460;-74
2022/06/05 07:12:40;;;;;;;3.70;3.17;;;18.10;99.90;;;;;;5069171;28;20460;-73
2022/06/05 07:15:08;;;;;;;3.20;2.90;;;18.00;99.90;;;;;;5074567;28;20540;-74
2022/06/05 07:17:35;;;;;;;3.93;3.30;;;17.90;99.90;;;;;;5075913;28;20944;-74
2022/06/05 07:20:04;;;;;;;3.20;2.90;;;17.90;99.90;;;;;;5072171;28;20970;-74
2022/06/05 07:22:32;;;;;;;3.70;2.60;;;17.90;99.90;;;;;;5071770;28;20953;-72
2022/06/05 07:24:58;;;;;;;5.33;2.67;;;17.80;99.90;;;;;;5071380;28;20503;-73
2022/06/05 07:27:25;;;;;;;2.70;1.60;;;17.70;99.90;;;;;;5071466;28;20919;-74
2022/06/05 07:29:52;;;;;;;4.40;2.90;;;17.80;99.90;;;;;;5071123;28;20449;-76
2022/06/05 07:32:20;;;;;;;3.80;2.30;;;17.90;99.90;;;;;;5071569;28;20553;-75
2022/06/05 07:34:47;;;;;;;3.03;2.03;;;18.10;99.90;;;;;;5070935;28;20457;-73
2022/06/05 07:37:16;;;;;;;2.23;2.03;;;18.20;99.90;;;;;;5071688;28;20952;-75
2022/06/05 07:39:44;;;;;;;2.90;2.30;;;18.20;99.90;;;;;;5071110;28;20627;-74
2022/06/05 07:42:11;;;;;;;4.47;2.20;;;18.10;99.90;;;;;;5071686;28;20454;-73
2022/06/05 07:44:38;;;;;;;5.13;2.90;;;18.10;99.90;;;;;;5071409;28;20572;-73
2022/06/05 07:47:05;;;;;;;1.93;1.83;;;18.00;99.90;;;;;;5071221;28;20457;-72
2022/06/05 07:49:32;;;;;;;2.40;2.20;;;17.90;99.90;;;;;;5071262;28;20450;-77
2022/06/05 07:54:45;;;;;;;3.10;2.80;;;17.80;99.90;;;;;;5070518;28;20440;-74
2022/06/05 07:57:15;;;;;;;3.13;2.77;;;17.90;99.90;;;;;;5071171;28;20438;-73
2022/06/05 07:59:45;;;;;;;2.90;2.60;;;17.90;99.90;;;;;;5070930;28;20521;-72
2022/06/05 08:02:14;;;;;;;3.17;2.47;;;18.10;99.90;;;;;;5070633;28;20453;-74
2022/06/05 08:04:43;;;;;;;2.90;2.47;;;18.20;99.90;;;;;;5070303;28;20491;-73
2022/06/05 08:07:11;;;;;;;3.80;2.63;;;18.40;99.90;;;;;;5071424;28;20541;-76
2022/06/05 08:09:39;;;;;;;2.70;2.50;;;18.50;99.90;;;;;;5071289;28;20457;-71
2022/06/05 08:12:10;;;;;;;3.07;2.17;;;18.60;99.90;;;;;;5069833;28;20460;-72
2022/06/05 08:14:37;;;;;;;3.10;2.30;;;18.60;99.90;;;;;;5071577;28;20446;-73
2022/06/05 08:17:05;;;;;;;2.80;2.33;;;18.70;99.90;;;;;;5061979;28;20928;-71
2022/06/05 08:19:32;;;;;;;4.80;2.17;;;18.80;99.90;;;;;;5062027;28;20489;-71
2022/06/05 08:22:00;;;;;;;4.90;2.63;;;18.90;99.90;;;;;;5068502;28;20449;-74
2022/06/05 08:24:27;;;;;;;2.37;1.77;;;19.10;99.90;;;;;;5069828;28;20472;-71
2022/06/05 08:26:53;;;;;;;2.73;2.33;;;19.20;99.90;;;;;;5067538;28;20450;-71
2022/06/05 08:29:22;;;;;;;2.03;1.73;;;19.40;99.90;;;;;;5061845;28;20457;-71
2022/06/05 08:31:49;;;;;;;2.13;1.87;;;19.50;99.90;;;;;;5067135;28;20452;-72
2022/06/05 08:34:16;;;;;;;3.00;1.80;;;19.70;99.90;;;;;;5065685;28;20532;-72
2022/06/05 08:36:43;;;;;;;3.10;2.20;;;19.70;99.90;;;;;;5068893;28;20450;-71
2022/06/05 08:42:07;;;;;;;1.67;1.30;;;20.00;99.90;;;;;;5057371;28;20465;-71
2022/06/05 08:44:41;;;;;;;3.07;1.83;;;20.30;99.90;;;;;;5070428;28;20454;-72
2022/06/05 08:47:15;;;;;;;1.97;1.50;;;20.50;99.90;;;;;;5069286;28;20548;-69
2022/06/05 08:49:46;;;;;;;1.40;1.30;;;20.30;99.90;;;;;;5069865;28;20455;-71
2022/06/05 08:52:20;;;;;;;1.80;1.47;;;20.40;99.90;;;;;;5070666;28;20442;-70
2022/06/05 08:54:53;;;;;;;2.20;1.30;;;20.40;99.90;;;;;;5061911;28;20520;-72
2022/06/05 08:57:24;;;;;;;1.67;1.57;;;20.50;99.90;;;;;;5070300;28;20437;-71
2022/06/05 08:59:57;;;;;;;2.20;1.70;;;20.80;99.90;;;;;;5070161;28;20813;-71
2022/06/05 09:02:26;;;;;;;3.30;1.30;;;;;;;;;;5069535;28;20461;-71
2022/06/05 09:04:56;;;;;;;1.97;1.27;;;;;;;;;;5061630;28;20449;-73
2022/06/05 09:07:26;;;;;;;1.47;1.33;;;;;;;;;;5070283;28;20537;-70
2022/06/05 09:09:56;;;;;;;1.83;1.43;;;;;;;;;;5071916;28;20932;-71
2022/06/05 09:12:27;;;;;;;1.60;1.23;;;;;;;;;;5072127;28;20536;-69
2022/06/05 09:14:58;;;;;;;3.10;2.77;;;;;;;;;;5074411;28;20460;-70
2022/06/05 09:17:26;;;;;;;1.90;1.40;;;;;;;;;;5074163;28;20437;-72
2022/06/05 09:19:53;;;;;;;1.70;1.27;;;;;;;;;;5072641;28;20454;-72
2022/06/05 09:22:24;;;;;;;1.33;1.07;;;;;;;;;;5063433;28;20453;-72
2022/06/05 09:25:01;;;;;;;1.43;1.10;;;;;;;;;;5071168;28;20440;-72
2022/06/05 09:27:32;;;;;;;3.80;1.70;;;;;;;;;;5071767;28;20437;-71
2022/06/05 09:30:03;;;;;;;1.17;1.07;;;;;;;;;;5070762;28;20445;-72
2022/06/05 09:32:44;;;;;;;1.50;1.20;;;;;;;;;;5071599;28;20787;-72
2022/06/05 09:35:17;;;;;;;1.73;1.20;;;;;;;;;;5073976;28;20449;-73
2022/06/05 09:37:48;;;;;;;1.70;1.27;;;;;;;;;;5073504;28;21001;-72
2022/06/05 09:40:17;;;;;;;1.00;0.83;;;;;;;;;;5071646;28;20484;-72
2022/06/05 09:42:52;;;;;;;1.97;1.20;;;;;;;;;;5072759;28;20434;-72
2022/06/05 09:45:27;;;;;;;1.20;0.90;;;;;;;;;;5073726;28;20464;-72
2022/06/05 09:47:58;;;;;;;1.27;1.00;;;;;;;;;;5073670;28;20441;-74
2022/06/05 09:50:27;;;;;;;3.23;1.03;;;;;;;;;;5073163;28;20429;-73
2022/06/05 09:52:54;;;;;;;1.53;1.10;;;;;;;;;;5062631;28;20458;-73
2022/06/05 09:55:22;;;;;;;1.33;1.00;;;;;;;;;;5071557;28;20437;-74
2022/06/05 10:00:50;;;;;;;1.67;1.07;;;21.10;99.90;;;;;;5071206;28;20425;-73
2022/06/05 10:03:19;;;;;;;1.97;1.33;;;;;;;;;;5071345;28;20449;-73
2022/06/05 10:06:07;;;;;;;1.50;0.90;;;;;;;;;;5070540;28;20495;-72
2022/06/05 10:08:41;;;;;;;1.30;0.83;;;;;;;;;;5071384;28;20457;-72
2022/06/05 10:11:19;;;;;;;1.23;1.00;;;;;;;;;;5070602;28;20444;-72
2022/06/05 10:13:50;;;;;;;3.20;1.27;;;22.60;99.90;;;;;;5070730;28;20480;-73
2022/06/05 10:16:26;;;;;;;1.63;0.90;;;23.70;4.50;;;;;;5062101;28;20496;-71
2022/06/05 10:19:03;;;;;;;1.03;0.90;;;23.50;99.90;;;;;;5070343;28;20529;-72
2022/06/05 10:21:37;;;;;;;1.40;1.07;;;23.60;1.00;;;;;;5069888;28;20461;-72
2022/06/05 10:24:15;;;;;;;1.60;1.00;;;23.40;85.30;;;;;;5067917;28;20789;-70
2022/06/05 10:26:49;;;;;;;1.07;0.87;;;23.40;99.90;;;;;;5066830;28;20485;-71
2022/06/05 10:29:22;;;;;;;1.37;1.10;;;23.30;1.00;;;;;;5070164;28;20449;-70
2022/06/05 10:31:59;;;;;;;1.53;1.27;;;23.30;99.90;;;;;;5067971;28;20908;-71
2022/06/05 10:34:35;;;;;;;2.60;1.20;;;23.20;1.00;;;;;;5071671;28;20445;-70
2022/06/05 10:37:17;;;;;;;1.30;1.20;;;22.80;86.60;;;;;;5070187;28;20822;-70
2022/06/05 10:39:57;;;;;;;3.33;1.73;;;22.70;1.00;;;;;;5069012;28;20469;-70
2022/06/05 10:42:31;;;;;;;1.70;1.40;;;22.70;2.60;;;;;;5070368;28;20445;-71
2022/06/05 10:45:14;;;;;;;1.87;1.50;;;22.50;75.30;;;;;;5070165;28;20540;-71
2022/06/05 10:47:44;;;;;;;2.13;1.90;;;;;;;;;;5070272;28;20450;-70
2022/06/05 10:50:13;;;;;;;3.03;2.13;;;;;;;;;;5070184;28;20467;-70
2022/06/05 10:52:47;;;;;;;3.53;2.10;;;22.40;99.90;;;;;;5068987;28;20441;-70
2022/06/05 10:55:30;;;;;;;4.50;2.23;;;21.30;99.90;;;;;;5070502;28;20442;-70
2022/06/05 10:58:09;;;;;;;2.57;2.20;;;21.00;99.90;;;;;;5069684;28;20454;-70
2022/06/05 11:00:52;;;;;;;2.70;2.20;;;21.10;99.90;;;;;;5069480;28;20481;-70
2022/06/05 11:03:28;;;;;;;2.40;2.20;;;21.00;99.90;;;;;;5065891;28;21013;-70
2022/06/05 11:06:14;;;;;;;2.50;2.20;;;20.90;99.90;;;;;;5069632;28;20470;-70
2022/06/05 11:08:52;;;;;;;3.27;2.27;;;20.80;99.90;;;;;;5069724;28;20563;-70
2022/06/05 11:14:15;;;;;;;2.20;1.90;;;20.90;99.90;;;;;;5070095;28;20428;-69
2022/06/05 11:16:51;;;;;;;2.40;2.00;;;21.00;99.90;;;;;;5069889;28;20450;-70
2022/06/05 11:19:27;;;;;;;5.77;2.37;;;21.10;99.90;;;;;;5069366;28;20453;-70
2022/06/05 11:21:55;;;;;;;3.70;2.33;;;21.10;99.90;;;;;;5069195;28;20452;-70
2022/06/05 11:24:26;;;;;;;2.07;1.87;;;20.90;99.90;;;;;;5069608;28;20532;-69
2022/06/05 11:27:03;;;;;;;2.17;1.97;;;20.80;99.90;;;;;;5069210;28;20484;-69
2022/06/05 11:29:39;;;;;;;3.20;2.27;;;20.80;99.90;;;;;;5068788;28;20460;-69
2022/06/05 11:32:32;;;;;;;3.10;2.80;;;20.60;99.90;;;;;;5062621;28;20797;-69
2022/06/05 11:35:08;;;;;;;3.27;2.40;;;20.50;99.90;;;;;;5065382;28;20798;-70
2022/06/05 11:37:57;;;;;;;3.53;2.20;;;20.50;99.90;;;;;;5069675;28;20933;-71
2022/06/05 11:40:36;;;;;;;2.80;1.70;;;20.70;99.90;;;;;;5057444;28;20827;-71
2022/06/05 11:43:29;;;;;;;2.90;1.67;;;20.90;99.90;;;;;;5068770;28;20784;-71
2022/06/05 11:46:04;;;;;;;2.37;2.17;;;21.00;99.90;;;;;;5066510;28;20485;-71
2022/06/05 11:48:37;;;;;;;1.93;1.47;;;20.90;99.90;;;;;;5068912;28;20933;-72
2022/06/05 11:51:14;;;;;;;4.90;2.30;;;21.40;99.90;;;;;;5068354;28;20521;-71
2022/06/05 11:53:51;;;;;;;3.67;1.80;;;21.90;99.90;;;;;;5069203;28;20437;-73
2022/06/05 11:56:36;;;;;;;2.50;1.90;;;22.00;99.90;;;;;;5068780;28;20984;-73
2022/06/05 11:59:09;;;;;;;4.20;1.97;;;;;;;;;;5067778;28;20873;-67
2022/06/05 12:01:38;;;;;;;4.87;2.43;;;;;;;;;;5069284;28;20449;-70
2022/06/05 12:04:11;;;;;;;3.90;1.90;;;;;;;;;;5067337;28;20815;-69
2022/06/05 12:06:42;;;;;;;2.13;1.80;;;;;;;;;;5069057;28;20465;-69
2022/06/05 12:09:13;;;;;;;2.13;1.73;;;;;;;;;;5068859;28;20458;-70
2022/06/05 12:11:43;;;;;;;2.40;1.50;;;;;;;;;;5069632;28;20937;-70
2022/06/05 12:14:14;;;;;;;3.17;1.97;;;;;;;;;;5069024;28;20801;-69
2022/06/05 12:16:44;;;;;;;3.57;2.40;;;;;;;;;;5068680;28;20541;-69
2022/06/05 12:19:16;;;;;;;1.83;1.60;;;;;;;;;;5067723;28;20464;-70
2022/06/05 12:21:49;;;;;;;1.83;1.57;;;;;;;;;;5068414;28;20446;-71
2022/06/05 12:24:21;;;;;;;3.47;1.20;;;;;;;;;;5068957;28;20437;-70
2022/06/05 12:26:52;;;;;;;2.80;1.50;;;;;;;;;;5064602;28;20481;-70
2022/06/05 12:29:22;;;;;;;2.33;1.63;;;;;;;;;;5067820;28;20516;-70
2022/06/05 12:31:53;;;;;;;1.70;1.53;;;;;;;;;;5066115;28;20794;-70
2022/06/05 12:34:22;;;;;;;1.60;1.50;;;;;;;;;;5068621;28;20441;-70
2022/06/05 12:36:55;;;;;;;1.67;1.50;;;;;;;;;;5067959;28;20454;-70
2022/06/05 12:39:26;;;;;;;3.20;1.50;;;;;;;;;;5067748;28;20462;-70
2022/06/05 12:42:04;;;;;;;1.77;1.60;;;;;;;;;;5068150;28;20564;-70
2022/06/05 12:44:33;;;;;;;2.30;1.33;;;;;;;;;;5066883;28;20881;-69
2022/06/05 12:47:03;;;;;;;2.27;1.43;;;;;;;;;;5067682;28;20917;-70
2022/06/05 12:49:37;;;;;;;1.80;1.47;;;;;;;;;;5067548;28;20453;-70
2022/06/05 12:52:12;;;;;;;6.27;1.67;;;;;;;;;;5067852;28;20524;-71
2022/06/05 12:54:43;;;;;;;1.40;1.20;;;;;;;;;;5068736;28;20456;-70
2022/06/05 12:57:14;;;;;;;2.43;1.47;;;;;;;;;;5068600;28;20446;-70
2022/06/05 12:59:47;;;;;;;2.80;1.23;;;;;;;;;;5067562;28;20453;-70
2022/06/05 13:02:27;;;;;;;5.00;1.47;;;;;;;;;;5068382;28;20481;-70
2022/06/05 13:04:58;;;;;;;2.00;1.20;;;;;;;;;;5057407;28;20808;-70
2022/06/05 13:07:35;;;;;;;2.53;1.30;;;;;;;;;;5067669;28;20524;-70
2022/06/05 13:10:08;;;;;;;1.50;1.40;;;;;;;;;;5067298;28;20468;-70
2022/06/05 13:12:38;;;;;;;1.20;1.10;;;;;;;;;;5067998;28;20445;-70
2022/06/05 13:15:07;;;;;;;2.10;1.00;;;;;;;;;;5067309;28;20457;-70
2022/06/05 13:17:39;;;;;;;1.60;1.40;;;;;;;;;;5058156;28;20456;-70
2022/06/05 13:20:16;;;;;;;1.67;1.47;;;;;;;;;;5067451;28;20448;-70
2022/06/05 13:22:49;;;;;;;2.83;1.20;;;;;;;;;;5067260;28;20455;-71
2022/06/05 13:25:18;;;;;;;1.13;1.03;;;;;;;;;;5063785;28;20449;-70
2022/06/05 13:28:03;;;;;;;2.83;1.50;;;;;;;;;;5066766;28;20481;-71
2022/06/05 13:30:32;;;;;;;4.10;1.47;;;;;;;;;;5065833;28;20445;-71
2022/06/05 13:33:05;;;;;;;1.70;1.43;;;;;;;;;;5067212;28;20441;-71
2022/06/05 13:35:38;;;;;;;1.63;1.20;;;;;;;;;;5055293;28;20445;-70
2022/06/05 13:38:13;;;;;;;2.00;1.43;;;;;;;;;;5067667;28;20885;-70
2022/06/05 13:40:43;;;;;;;4.40;1.30;;;;;;;;;;5067233;28;20510;-71
2022/06/05 13:43:16;;;;;;;1.30;1.20;;;;;;;;;;5067979;28;20814;-71
2022/06/05 13:45:48;;;;;;;2.80;1.43;;;;;;;;;;5068244;28;20442;-71
2022/06/05 13:48:16;;;;;;;3.80;1.20;;;;;;;;;;5067220;28;20480;-70
2022/06/05 13:50:50;;;;;;;2.30;1.37;;;;;;;;;;5066760;28;20464;-72
2022/06/05 13:53:20;;;;;;;2.47;1.17;;;;;;;;;;5067235;28;20452;-71
2022/06/05 13:56:07;;;;;;;1.90;1.37;;;;;;;;;;5068681;28;20651;-71
2022/06/05 13:58:41;;;;;;;3.27;1.70;;;;;;;;;;5070985;28;20529;-70
2022/06/05 14:01:11;;;;;;;1.40;1.30;;;;;;;;;;5071097;28;20494;-71
2022/06/05 14:03:43;;;;;;;3.00;1.43;;;;;;;;;;5070648;28;20472;-70
2022/06/05 14:06:18;;;;;;;8.10;1.50;;;;;;;;;;5071264;28;20449;-70
2022/06/05 14:08:52;;;;;;;1.87;1.50;;;;;;;;;;5070290;28;20445;-70
2022/06/05 14:11:21;;;;;;;1.83;1.73;;;;;;;;;;5071286;28;20810;-71
2022/06/05 14:13:51;;;;;;;2.60;1.50;;;;;;;;;;5070257;28;20449;-71
2022/06/05 14:16:19;;;;;;;1.40;1.17;;;;;;;;;;5070809;28;20868;-70
2022/06/05 14:18:47;;;;;;;2.27;1.30;;;;;;;;;;5070316;28;20446;-70
2022/06/05 14:21:19;;;;;;;1.80;1.50;;;;;;;;;;5071173;28;20804;-70
2022/06/05 14:23:46;;;;;;;2.93;1.20;;;;;;;;;;5070176;28;20963;-70
2022/06/05 14:26:17;;;;;;;3.23;1.80;;;;;;;;;;5071057;28;20465;-70
2022/06/05 14:28:45;;;;;;;3.57;2.03;;;;;;;;;;5069636;28;20438;-70
2022/06/05 14:31:14;;;;;;;1.40;1.30;;;;;;;;;;5068632;28;20884;-71
2022/06/05 14:33:45;;;;;;;2.10;1.70;;;;;;;;;;5069428;28;20959;-70
2022/06/05 14:36:18;;;;;;;1.50;1.40;;;;;;;;;;5070983;28;20894;-70
2022/06/05 14:38:46;;;;;;;1.77;1.50;;;;;;;;;;5071086;28;20441;-72
2022/06/05 14:41:17;;;;;;;1.53;1.43;;;22.40;99.90;;;;;;5073597;28;20936;-71
2022/06/05 14:43:49;;;;;;;2.30;1.87;;;23.70;1.00;;;;;;5070512;28;20528;-71
2022/06/05 14:46:34;;;;;;;1.73;1.57;;;23.50;1.00;;;;;;5067309;28;20481;-70